sensor_id;sensor_type;location;lat;lon;timestamp;P1;durP1;ratioP1;P2;durP2;ratioP2
15843;SDS011;50807;52.436;13.346;2023-05-07T00:00:04;6.95;;;6.35;;
15843;SDS011;50807;52.436;13.346;2023-05-07T00:00:38;6.57;;;5.97;;
15843;SDS011;50807;52.436;13.346;2023-05-07T00:01:11;6.50;;;6.00;;
15843;SDS011;50807;52.436;13.346;2023-05-07T00:01:42;6.47;;;5.97;;
15843;SDS011;50807;52.436;13.346;2023-05-07T00:02:13;6.55;;;6.05;;
15843;SDS011;50807;52.436;13.346;2023-05-07T00:02:45;6.28;;;5.78;;
15843;SDS011;50807;52.436;13.346;2023-05-07T00:03:16;6.80;;;6.20;;
15843;SDS011;50807;52.436;13.346;2023-05-07T00:03:47;6.37;;;5.83;;
15843;SDS011;50807;52.436;13.346;2023-05-07T00:04:20;7.22;;;6.63;;
15843;SDS011;50807;52.436;13.346;2023-05-07T00:04:50;6.90;;;6.30;;
15843;SDS011;50807;52.436;13.346;2023-05-07T00:05:21;6.88;;;6.38;;
15843;SDS011;50807;52.436;13.346;2023-05-07T00:05:53;6.80;;;6.20;;
15843;SDS011;50807;52.436;13.346;2023-05-07T00:06:24;6.93;;;6.33;;
15843;SDS011;50807;52.436;13.346;2023-05-07T00:06:56;6.95;;;6.35;;
15843;SDS011;50807;52.436;13.346;2023-05-07T00:07:28;8.05;;;6.35;;
15843;SDS011;50807;52.436;13.346;2023-05-07T00:07:59;6.90;;;6.40;;
15843;SDS011;50807;52.436;13.346;2023-05-07T00:08:29;6.73;;;6.23;;
15843;SDS011;50807;52.436;13.346;2023-05-07T00:09:01;7.00;;;6.28;;
15843;SDS011;50807;52.436;13.346;2023-05-07T00:09:34;6.88;;;6.28;;
15843;SDS011;50807;52.436;13.346;2023-05-07T00:10:05;7.00;;;6.27;;
15843;SDS011;50807;52.436;13.346;2023-05-07T00:10:37;6.30;;;5.78;;
15843;SDS011;50807;52.436;13.346;2023-05-07T00:11:08;6.97;;;6.38;;
15843;SDS011;50807;52.436;13.346;2023-05-07T00:11:39;7.20;;;6.60;;
15843;SDS011;50807;52.436;13.346;2023-05-07T00:12:10;6.53;;;6.03;;
15843;SDS011;50807;52.436;13.346;2023-05-07T00:12:41;7.07;;;6.47;;
15843;SDS011;50807;52.436;13.346;2023-05-07T00:13:12;6.70;;;6.10;;
15843;SDS011;50807;52.436;13.346;2023-05-07T00:13:43;7.87;;;6.40;;
15843;SDS011;50807;52.436;13.346;2023-05-07T00:14:14;6.57;;;6.03;;
15843;SDS011;50807;52.436;13.346;2023-05-07T00:14:45;6.28;;;5.68;;
15843;SDS011;50807;52.436;13.346;2023-05-07T00:15:16;6.83;;;6.23;;
15843;SDS011;50807;52.436;13.346;2023-05-07T00:15:47;6.60;;;6.03;;
15843;SDS011;50807;52.436;13.346;2023-05-07T00:16:18;7.27;;;6.57;;
15843;SDS011;50807;52.436;13.346;2023-05-07T00:16:50;6.65;;;5.93;;
15843;SDS011;50807;52.436;13.346;2023-05-07T00:17:21;6.88;;;6.18;;
15843;SDS011;50807;52.436;13.346;2023-05-07T00:17:53;6.53;;;5.93;;
15843;SDS011;50807;52.436;13.346;2023-05-07T00:18:25;6.28;;;5.75;;
15843;SDS011;50807;52.436;13.346;2023-05-07T00:18:55;6.13;;;5.63;;
15843;SDS011;50807;52.436;13.346;2023-05-07T00:19:27;6.40;;;5.80;;
15843;SDS011;50807;52.436;13.346;2023-05-07T00:19:59;6.82;;;6.25;;
15843;SDS011;50807;52.436;13.346;2023-05-07T00:20:30;6.70;;;6.00;;
15843;SDS011;50807;52.436;13.346;2023-05-07T00:21:00;6.97;;;6.33;;
15843;SDS011;50807;52.436;13.346;2023-05-07T00:21:32;6.90;;;6.30;;
15843;SDS011;50807;52.436;13.346;2023-05-07T00:22:03;6.63;;;6.03;;
15843;SDS011;50807;52.436;13.346;2023-05-07T00:22:34;7.10;;;6.50;;
15843;SDS011;50807;52.436;13.346;2023-05-07T00:23:05;6.50;;;6.00;;
15843;SDS011;50807;52.436;13.346;2023-05-07T00:23:36;6.80;;;6.20;;
15843;SDS011;50807;52.436;13.346;2023-05-07T00:24:07;6.20;;;5.70;;
15843;SDS011;50807;52.436;13.346;2023-05-07T00:24:38;6.72;;;6.20;;
15843;SDS011;50807;52.436;13.346;2023-05-07T00:25:09;6.70;;;6.10;;
15843;SDS011;50807;52.436;13.346;2023-05-07T00:25:40;6.53;;;5.93;;
15843;SDS011;50807;52.436;13.346;2023-05-07T00:26:12;6.40;;;5.90;;
15843;SDS011;50807;52.436;13.346;2023-05-07T00:26:42;6.00;;;5.50;;
15843;SDS011;50807;52.436;13.346;2023-05-07T00:27:13;6.50;;;5.80;;
15843;SDS011;50807;52.436;13.346;2023-05-07T00:27:44;6.63;;;6.13;;
15843;SDS011;50807;52.436;13.346;2023-05-07T00:28:16;6.60;;;6.00;;
15843;SDS011;50807;52.436;13.346;2023-05-07T00:28:47;6.43;;;5.90;;
15843;SDS011;50807;52.436;13.346;2023-05-07T00:29:17;6.43;;;6.00;;
15843;SDS011;50807;52.436;13.346;2023-05-07T00:29:48;6.33;;;5.83;;
15843;SDS011;50807;52.436;13.346;2023-05-07T00:30:20;6.38;;;5.78;;
15843;SDS011;50807;52.436;13.346;2023-05-07T00:30:51;6.40;;;5.90;;
15843;SDS011;50807;52.436;13.346;2023-05-07T00:31:22;6.55;;;6.05;;
15843;SDS011;50807;52.436;13.346;2023-05-07T00:31:54;6.10;;;5.60;;
15843;SDS011;50807;52.436;13.346;2023-05-07T00:32:24;6.73;;;6.13;;
15843;SDS011;50807;52.436;13.346;2023-05-07T00:32:55;11.97;;;9.77;;
15843;SDS011;50807;52.436;13.346;2023-05-07T00:33:27;9.07;;;8.27;;
15843;SDS011;50807;52.436;13.346;2023-05-07T00:33:58;8.13;;;7.40;;
15843;SDS011;50807;52.436;13.346;2023-05-07T00:34:30;14.47;;;12.90;;
15843;SDS011;50807;52.436;13.346;2023-05-07T00:35:00;10.27;;;9.38;;
15843;SDS011;50807;52.436;13.346;2023-05-07T00:35:32;8.18;;;7.47;;
15843;SDS011;50807;52.436;13.346;2023-05-07T00:36:03;7.67;;;6.97;;
15843;SDS011;50807;52.436;13.346;2023-05-07T00:36:35;7.45;;;6.85;;
15843;SDS011;50807;52.436;13.346;2023-05-07T00:37:06;7.22;;;6.53;;
15843;SDS011;50807;52.436;13.346;2023-05-07T00:37:37;6.40;;;5.87;;
15843;SDS011;50807;52.436;13.346;2023-05-07T00:38:08;6.93;;;6.37;;
15843;SDS011;50807;52.436;13.346;2023-05-07T00:38:39;7.00;;;6.40;;
15843;SDS011;50807;52.436;13.346;2023-05-07T00:39:10;8.27;;;7.57;;
15843;SDS011;50807;52.436;13.346;2023-05-07T00:39:41;8.77;;;7.93;;
15843;SDS011;50807;52.436;13.346;2023-05-07T00:40:12;7.90;;;7.20;;
15843;SDS011;50807;52.436;13.346;2023-05-07T00:40:44;8.20;;;6.80;;
15843;SDS011;50807;52.436;13.346;2023-05-07T00:41:15;6.88;;;6.22;;
15843;SDS011;50807;52.436;13.346;2023-05-07T00:41:46;7.07;;;6.23;;
15843;SDS011;50807;52.436;13.346;2023-05-07T00:42:18;6.18;;;5.57;;
15843;SDS011;50807;52.436;13.346;2023-05-07T00:42:48;7.17;;;6.47;;
15843;SDS011;50807;52.436;13.346;2023-05-07T00:43:19;7.03;;;6.47;;
15843;SDS011;50807;52.436;13.346;2023-05-07T00:43:50;6.47;;;5.87;;
15843;SDS011;50807;52.436;13.346;2023-05-07T00:44:22;6.63;;;6.03;;
15843;SDS011;50807;52.436;13.346;2023-05-07T00:44:53;6.18;;;5.68;;
15843;SDS011;50807;52.436;13.346;2023-05-07T00:45:26;6.20;;;5.60;;
15843;SDS011;50807;52.436;13.346;2023-05-07T00:45:59;5.60;;;5.20;;
15843;SDS011;50807;52.436;13.346;2023-05-07T00:46:30;5.97;;;5.47;;
15843;SDS011;50807;52.436;13.346;2023-05-07T00:47:03;6.20;;;5.63;;
15843;SDS011;50807;52.436;13.346;2023-05-07T00:47:36;6.43;;;5.82;;
15843;SDS011;50807;52.436;13.346;2023-05-07T00:48:07;5.80;;;5.30;;
15843;SDS011;50807;52.436;13.346;2023-05-07T00:48:38;5.87;;;5.37;;
15843;SDS011;50807;52.436;13.346;2023-05-07T00:49:10;7.03;;;6.40;;
15843;SDS011;50807;52.436;13.346;2023-05-07T00:49:44;7.43;;;6.82;;
15843;SDS011;50807;52.436;13.346;2023-05-07T00:50:15;6.25;;;5.68;;
15843;SDS011;50807;52.436;13.346;2023-05-07T00:50:47;7.25;;;6.35;;
15843;SDS011;50807;52.436;13.346;2023-05-07T00:51:19;6.10;;;5.60;;
15843;SDS011;50807;52.436;13.346;2023-05-07T00:51:50;5.88;;;5.38;;
15843;SDS011;50807;52.436;13.346;2023-05-07T00:52:21;6.17;;;5.60;;
15843;SDS011;50807;52.436;13.346;2023-05-07T00:52:56;6.05;;;5.55;;
15843;SDS011;50807;52.436;13.346;2023-05-07T00:53:28;5.80;;;5.30;;
15843;SDS011;50807;52.436;13.346;2023-05-07T00:54:00;6.03;;;5.53;;
15843;SDS011;50807;52.436;13.346;2023-05-07T00:54:34;5.82;;;5.32;;
15843;SDS011;50807;52.436;13.346;2023-05-07T00:55:06;5.45;;;5.05;;
15843;SDS011;50807;52.436;13.346;2023-05-07T00:55:38;5.63;;;5.18;;
15843;SDS011;50807;52.436;13.346;2023-05-07T00:56:10;6.57;;;5.97;;
15843;SDS011;50807;52.436;13.346;2023-05-07T00:56:41;6.32;;;5.82;;
15843;SDS011;50807;52.436;13.346;2023-05-07T00:57:12;7.10;;;6.40;;
15843;SDS011;50807;52.436;13.346;2023-05-07T00:57:45;5.55;;;5.13;;
15843;SDS011;50807;52.436;13.346;2023-05-07T00:58:16;5.30;;;4.90;;
15843;SDS011;50807;52.436;13.346;2023-05-07T00:58:47;5.50;;;5.07;;
15843;SDS011;50807;52.436;13.346;2023-05-07T00:59:19;5.72;;;5.22;;
15843;SDS011;50807;52.436;13.346;2023-05-07T00:59:50;6.13;;;5.57;;
15843;SDS011;50807;52.436;13.346;2023-05-07T01:00:21;5.63;;;5.13;;
15843;SDS011;50807;52.436;13.346;2023-05-07T01:00:54;5.50;;;5.07;;
15843;SDS011;50807;52.436;13.346;2023-05-07T01:01:25;5.50;;;5.10;;
15843;SDS011;50807;52.436;13.346;2023-05-07T01:01:56;5.50;;;5.00;;
15843;SDS011;50807;52.436;13.346;2023-05-07T01:02:28;5.25;;;4.82;;
15843;SDS011;50807;52.436;13.346;2023-05-07T01:02:59;5.30;;;4.90;;
15843;SDS011;50807;52.436;13.346;2023-05-07T01:03:29;4.73;;;4.33;;
15843;SDS011;50807;52.436;13.346;2023-05-07T01:04:01;5.28;;;4.78;;
15843;SDS011;50807;52.436;13.346;2023-05-07T01:04:32;5.20;;;4.80;;
15843;SDS011;50807;52.436;13.346;2023-05-07T01:05:05;5.90;;;5.40;;
15843;SDS011;50807;52.436;13.346;2023-05-07T01:05:39;5.43;;;4.93;;
15843;SDS011;50807;52.436;13.346;2023-05-07T01:06:12;5.30;;;4.80;;
15843;SDS011;50807;52.436;13.346;2023-05-07T01:06:46;5.30;;;4.80;;
15843;SDS011;50807;52.436;13.346;2023-05-07T01:07:17;5.15;;;4.75;;
15843;SDS011;50807;52.436;13.346;2023-05-07T01:07:48;5.05;;;4.50;;
15843;SDS011;50807;52.436;13.346;2023-05-07T01:08:24;5.43;;;4.93;;
15843;SDS011;50807;52.436;13.346;2023-05-07T01:08:57;5.55;;;5.07;;
15843;SDS011;50807;52.436;13.346;2023-05-07T01:09:29;5.10;;;4.70;;
15843;SDS011;50807;52.436;13.346;2023-05-07T01:10:01;4.93;;;4.53;;
15843;SDS011;50807;52.436;13.346;2023-05-07T01:10:34;5.03;;;4.63;;
15843;SDS011;50807;52.436;13.346;2023-05-07T01:11:05;5.27;;;4.50;;
15843;SDS011;50807;52.436;13.346;2023-05-07T01:11:37;4.43;;;4.03;;
15843;SDS011;50807;52.436;13.346;2023-05-07T01:12:09;5.30;;;4.80;;
15843;SDS011;50807;52.436;13.346;2023-05-07T01:12:42;4.95;;;4.55;;
15843;SDS011;50807;52.436;13.346;2023-05-07T01:13:15;6.30;;;4.40;;
15843;SDS011;50807;52.436;13.346;2023-05-07T01:13:46;5.00;;;4.60;;
15843;SDS011;50807;52.436;13.346;2023-05-07T01:14:20;4.50;;;4.20;;
15843;SDS011;50807;52.436;13.346;2023-05-07T01:14:51;5.05;;;4.63;;
15843;SDS011;50807;52.436;13.346;2023-05-07T01:15:22;4.30;;;4.00;;
15843;SDS011;50807;52.436;13.346;2023-05-07T01:15:53;5.72;;;5.32;;
15843;SDS011;50807;52.436;13.346;2023-05-07T01:16:25;5.20;;;4.68;;
15843;SDS011;50807;52.436;13.346;2023-05-07T01:16:56;5.18;;;4.78;;
15843;SDS011;50807;52.436;13.346;2023-05-07T01:17:28;5.15;;;4.75;;
15843;SDS011;50807;52.436;13.346;2023-05-07T01:17:59;4.38;;;4.07;;
15843;SDS011;50807;52.436;13.346;2023-05-07T01:18:31;6.13;;;4.75;;
15843;SDS011;50807;52.436;13.346;2023-05-07T01:19:02;5.07;;;4.40;;
15843;SDS011;50807;52.436;13.346;2023-05-07T01:19:33;5.10;;;4.70;;
15843;SDS011;50807;52.436;13.346;2023-05-07T01:20:08;4.80;;;4.40;;
15843;SDS011;50807;52.436;13.346;2023-05-07T01:20:40;3.97;;;3.67;;
15843;SDS011;50807;52.436;13.346;2023-05-07T01:21:11;4.90;;;4.50;;
15843;SDS011;50807;52.436;13.346;2023-05-07T01:21:47;5.13;;;4.63;;
15843;SDS011;50807;52.436;13.346;2023-05-07T01:22:24;4.50;;;4.20;;
15843;SDS011;50807;52.436;13.346;2023-05-07T01:23:00;4.60;;;4.20;;
15843;SDS011;50807;52.436;13.346;2023-05-07T01:23:34;4.65;;;4.30;;
15843;SDS011;50807;52.436;13.346;2023-05-07T01:24:06;4.95;;;4.55;;
15843;SDS011;50807;52.436;13.346;2023-05-07T01:24:37;4.88;;;4.47;;
15843;SDS011;50807;52.436;13.346;2023-05-07T01:25:08;4.75;;;4.35;;
15843;SDS011;50807;52.436;13.346;2023-05-07T01:25:40;5.00;;;4.60;;
15843;SDS011;50807;52.436;13.346;2023-05-07T01:26:10;5.27;;;4.77;;
15843;SDS011;50807;52.436;13.346;2023-05-07T01:26:41;4.67;;;4.27;;
15843;SDS011;50807;52.436;13.346;2023-05-07T01:27:13;4.97;;;4.50;;
15843;SDS011;50807;52.436;13.346;2023-05-07T01:27:44;5.50;;;5.00;;
15843;SDS011;50807;52.436;13.346;2023-05-07T01:28:15;5.10;;;4.60;;
15843;SDS011;50807;52.436;13.346;2023-05-07T01:28:47;5.15;;;4.72;;
15843;SDS011;50807;52.436;13.346;2023-05-07T01:29:18;4.63;;;4.20;;
15843;SDS011;50807;52.436;13.346;2023-05-07T01:29:48;5.10;;;4.70;;
15843;SDS011;50807;52.436;13.346;2023-05-07T01:30:20;5.35;;;4.90;;
15843;SDS011;50807;52.436;13.346;2023-05-07T01:30:53;4.70;;;4.30;;
15843;SDS011;50807;52.436;13.346;2023-05-07T01:31:31;5.05;;;4.65;;
15843;SDS011;50807;52.436;13.346;2023-05-07T01:32:05;5.50;;;5.00;;
15843;SDS011;50807;52.436;13.346;2023-05-07T01:32:38;4.90;;;4.50;;
15843;SDS011;50807;52.436;13.346;2023-05-07T01:33:15;5.10;;;4.70;;
15843;SDS011;50807;52.436;13.346;2023-05-07T01:33:52;5.25;;;4.82;;
15843;SDS011;50807;52.436;13.346;2023-05-07T01:34:24;5.10;;;4.70;;
15843;SDS011;50807;52.436;13.346;2023-05-07T01:34:58;4.82;;;4.43;;
15843;SDS011;50807;52.436;13.346;2023-05-07T01:35:34;4.55;;;4.15;;
15843;SDS011;50807;52.436;13.346;2023-05-07T01:36:11;5.13;;;4.72;;
15843;SDS011;50807;52.436;13.346;2023-05-07T01:36:43;5.20;;;4.80;;
15843;SDS011;50807;52.436;13.346;2023-05-07T01:37:15;5.05;;;4.53;;
15843;SDS011;50807;52.436;13.346;2023-05-07T01:37:48;5.72;;;5.22;;
15843;SDS011;50807;52.436;13.346;2023-05-07T01:38:21;7.80;;;4.90;;
15843;SDS011;50807;52.436;13.346;2023-05-07T01:38:53;5.10;;;4.70;;
15843;SDS011;50807;52.436;13.346;2023-05-07T01:39:25;5.05;;;4.65;;
15843;SDS011;50807;52.436;13.346;2023-05-07T01:39:58;5.10;;;4.70;;
15843;SDS011;50807;52.436;13.346;2023-05-07T01:40:31;5.38;;;4.97;;
15843;SDS011;50807;52.436;13.346;2023-05-07T01:41:04;5.50;;;5.00;;
15843;SDS011;50807;52.436;13.346;2023-05-07T01:41:36;6.10;;;5.60;;
15843;SDS011;50807;52.436;13.346;2023-05-07T01:42:07;5.10;;;4.70;;
15843;SDS011;50807;52.436;13.346;2023-05-07T01:42:38;5.03;;;4.63;;
15843;SDS011;50807;52.436;13.346;2023-05-07T01:43:11;5.80;;;5.20;;
15843;SDS011;50807;52.436;13.346;2023-05-07T01:43:42;5.43;;;4.93;;
15843;SDS011;50807;52.436;13.346;2023-05-07T01:44:13;5.70;;;5.13;;
15843;SDS011;50807;52.436;13.346;2023-05-07T01:44:47;5.53;;;5.13;;
15843;SDS011;50807;52.436;13.346;2023-05-07T01:45:18;5.20;;;4.80;;
15843;SDS011;50807;52.436;13.346;2023-05-07T01:45:49;5.43;;;5.03;;
15843;SDS011;50807;52.436;13.346;2023-05-07T01:46:22;5.10;;;4.70;;
15843;SDS011;50807;52.436;13.346;2023-05-07T01:46:55;5.78;;;5.28;;
15843;SDS011;50807;52.436;13.346;2023-05-07T01:47:28;5.40;;;5.00;;
15843;SDS011;50807;52.436;13.346;2023-05-07T01:48:01;5.40;;;4.90;;
15843;SDS011;50807;52.436;13.346;2023-05-07T01:48:33;4.95;;;4.55;;
15843;SDS011;50807;52.436;13.346;2023-05-07T01:49:05;6.22;;;5.30;;
15843;SDS011;50807;52.436;13.346;2023-05-07T01:49:37;5.70;;;5.20;;
15843;SDS011;50807;52.436;13.346;2023-05-07T01:50:08;5.28;;;4.85;;
15843;SDS011;50807;52.436;13.346;2023-05-07T01:50:40;5.18;;;4.80;;
15843;SDS011;50807;52.436;13.346;2023-05-07T01:51:12;5.65;;;5.15;;
15843;SDS011;50807;52.436;13.346;2023-05-07T01:51:43;5.10;;;4.70;;
15843;SDS011;50807;52.436;13.346;2023-05-07T01:52:14;5.83;;;5.33;;
15843;SDS011;50807;52.436;13.346;2023-05-07T01:52:46;5.97;;;5.47;;
15843;SDS011;50807;52.436;13.346;2023-05-07T01:53:20;5.28;;;4.88;;
15843;SDS011;50807;52.436;13.346;2023-05-07T01:53:51;5.70;;;5.20;;
15843;SDS011;50807;52.436;13.346;2023-05-07T01:54:25;6.03;;;5.63;;
15843;SDS011;50807;52.436;13.346;2023-05-07T01:54:57;5.82;;;5.43;;
15843;SDS011;50807;52.436;13.346;2023-05-07T01:55:28;5.57;;;5.07;;
15843;SDS011;50807;52.436;13.346;2023-05-07T01:56:00;5.63;;;5.15;;
15843;SDS011;50807;52.436;13.346;2023-05-07T01:56:30;5.40;;;5.00;;
15843;SDS011;50807;52.436;13.346;2023-05-07T01:57:01;5.80;;;5.40;;
15843;SDS011;50807;52.436;13.346;2023-05-07T01:57:33;5.72;;;5.22;;
15843;SDS011;50807;52.436;13.346;2023-05-07T01:58:04;5.73;;;5.27;;
15843;SDS011;50807;52.436;13.346;2023-05-07T01:58:34;5.77;;;5.13;;
15843;SDS011;50807;52.436;13.346;2023-05-07T01:59:06;5.80;;;5.30;;
15843;SDS011;50807;52.436;13.346;2023-05-07T01:59:37;5.23;;;4.83;;
15843;SDS011;50807;52.436;13.346;2023-05-07T02:00:08;5.60;;;5.10;;
15843;SDS011;50807;52.436;13.346;2023-05-07T02:00:40;4.97;;;4.57;;
15843;SDS011;50807;52.436;13.346;2023-05-07T02:01:12;6.28;;;5.68;;
15843;SDS011;50807;52.436;13.346;2023-05-07T02:01:43;5.43;;;4.93;;
15843;SDS011;50807;52.436;13.346;2023-05-07T02:02:14;5.70;;;5.20;;
15843;SDS011;50807;52.436;13.346;2023-05-07T02:02:45;5.80;;;5.40;;
15843;SDS011;50807;52.436;13.346;2023-05-07T02:03:16;5.40;;;5.00;;
15843;SDS011;50807;52.436;13.346;2023-05-07T02:03:47;5.40;;;5.00;;
15843;SDS011;50807;52.436;13.346;2023-05-07T02:04:18;5.90;;;5.40;;
15843;SDS011;50807;52.436;13.346;2023-05-07T02:04:50;5.97;;;5.50;;
15843;SDS011;50807;52.436;13.346;2023-05-07T02:05:20;6.05;;;5.55;;
15843;SDS011;50807;52.436;13.346;2023-05-07T02:05:51;5.27;;;4.87;;
15843;SDS011;50807;52.436;13.346;2023-05-07T02:06:22;5.87;;;5.43;;
15843;SDS011;50807;52.436;13.346;2023-05-07T02:06:54;5.55;;;5.05;;
15843;SDS011;50807;52.436;13.346;2023-05-07T02:07:25;5.47;;;4.97;;
15843;SDS011;50807;52.436;13.346;2023-05-07T02:07:57;5.17;;;4.77;;
15843;SDS011;50807;52.436;13.346;2023-05-07T02:08:29;5.68;;;5.18;;
15843;SDS011;50807;52.436;13.346;2023-05-07T02:09:00;6.15;;;5.65;;
15843;SDS011;50807;52.436;13.346;2023-05-07T02:09:31;5.60;;;5.17;;
15843;SDS011;50807;52.436;13.346;2023-05-07T02:10:03;6.40;;;5.90;;
15843;SDS011;50807;52.436;13.346;2023-05-07T02:10:36;5.68;;;5.20;;
15843;SDS011;50807;52.436;13.346;2023-05-07T02:11:06;5.63;;;5.13;;
15843;SDS011;50807;52.436;13.346;2023-05-07T02:11:38;5.50;;;5.10;;
15843;SDS011;50807;52.436;13.346;2023-05-07T02:12:09;5.53;;;5.10;;
15843;SDS011;50807;52.436;13.346;2023-05-07T02:12:40;6.70;;;5.53;;
15843;SDS011;50807;52.436;13.346;2023-05-07T02:13:12;5.57;;;5.18;;
15843;SDS011;50807;52.436;13.346;2023-05-07T02:13:43;5.97;;;5.47;;
15843;SDS011;50807;52.436;13.346;2023-05-07T02:14:14;5.47;;;4.82;;
15843;SDS011;50807;52.436;13.346;2023-05-07T02:14:45;5.60;;;5.10;;
15843;SDS011;50807;52.436;13.346;2023-05-07T02:15:16;5.57;;;5.10;;
15843;SDS011;50807;52.436;13.346;2023-05-07T02:15:48;5.65;;;5.18;;
15843;SDS011;50807;52.436;13.346;2023-05-07T02:16:20;7.13;;;6.07;;
15843;SDS011;50807;52.436;13.346;2023-05-07T02:16:52;5.15;;;4.75;;
15843;SDS011;50807;52.436;13.346;2023-05-07T02:17:23;5.93;;;5.33;;
15843;SDS011;50807;52.436;13.346;2023-05-07T02:17:59;5.38;;;4.97;;
15843;SDS011;50807;52.436;13.346;2023-05-07T02:18:31;5.68;;;5.15;;
15843;SDS011;50807;52.436;13.346;2023-05-07T02:19:01;5.50;;;5.10;;
15843;SDS011;50807;52.436;13.346;2023-05-07T02:19:32;5.20;;;4.73;;
15843;SDS011;50807;52.436;13.346;2023-05-07T02:20:05;5.15;;;4.72;;
15843;SDS011;50807;52.436;13.346;2023-05-07T02:20:43;5.97;;;5.20;;
15843;SDS011;50807;52.436;13.346;2023-05-07T02:21:13;5.50;;;5.10;;
15843;SDS011;50807;52.436;13.346;2023-05-07T02:21:45;6.18;;;5.68;;
15843;SDS011;50807;52.436;13.346;2023-05-07T02:22:16;5.27;;;4.87;;
15843;SDS011;50807;52.436;13.346;2023-05-07T02:22:48;5.30;;;4.80;;
15843;SDS011;50807;52.436;13.346;2023-05-07T02:23:20;5.60;;;5.20;;
15843;SDS011;50807;52.436;13.346;2023-05-07T02:23:51;5.70;;;5.30;;
15843;SDS011;50807;52.436;13.346;2023-05-07T02:24:22;5.50;;;5.00;;
15843;SDS011;50807;52.436;13.346;2023-05-07T02:24:54;5.28;;;4.88;;
15843;SDS011;50807;52.436;13.346;2023-05-07T02:25:25;3.70;;;3.43;;
15843;SDS011;50807;52.436;13.346;2023-05-07T02:26:32;5.25;;;4.85;;
15843;SDS011;50807;52.436;13.346;2023-05-07T02:27:04;5.32;;;4.93;;
15843;SDS011;50807;52.436;13.346;2023-05-07T02:27:34;5.77;;;5.30;;
15843;SDS011;50807;52.436;13.346;2023-05-07T02:28:05;5.67;;;5.17;;
15843;SDS011;50807;52.436;13.346;2023-05-07T02:28:36;5.47;;;4.97;;
15843;SDS011;50807;52.436;13.346;2023-05-07T02:29:08;5.97;;;5.38;;
15843;SDS011;50807;52.436;13.346;2023-05-07T02:29:38;5.60;;;5.10;;
15843;SDS011;50807;52.436;13.346;2023-05-07T02:30:09;5.60;;;5.10;;
15843;SDS011;50807;52.436;13.346;2023-05-07T02:30:41;5.20;;;4.80;;
15843;SDS011;50807;52.436;13.346;2023-05-07T02:31:13;5.70;;;5.30;;
15843;SDS011;50807;52.436;13.346;2023-05-07T02:31:44;5.40;;;5.00;;
15843;SDS011;50807;52.436;13.346;2023-05-07T02:32:14;5.50;;;5.07;;
15843;SDS011;50807;52.436;13.346;2023-05-07T02:32:46;5.72;;;5.13;;
15843;SDS011;50807;52.436;13.346;2023-05-07T02:33:17;5.50;;;5.10;;
15843;SDS011;50807;52.436;13.346;2023-05-07T02:33:47;5.30;;;4.90;;
15843;SDS011;50807;52.436;13.346;2023-05-07T02:34:19;5.43;;;4.90;;
15843;SDS011;50807;52.436;13.346;2023-05-07T02:34:50;5.20;;;4.80;;
15843;SDS011;50807;52.436;13.346;2023-05-07T02:35:21;5.70;;;5.20;;
15843;SDS011;50807;52.436;13.346;2023-05-07T02:35:52;5.40;;;4.50;;
15843;SDS011;50807;52.436;13.346;2023-05-07T02:36:25;5.47;;;5.07;;
15843;SDS011;50807;52.436;13.346;2023-05-07T02:36:56;5.32;;;4.90;;
15843;SDS011;50807;52.436;13.346;2023-05-07T02:37:27;5.30;;;4.80;;
15843;SDS011;50807;52.436;13.346;2023-05-07T02:37:58;5.33;;;4.83;;
15843;SDS011;50807;52.436;13.346;2023-05-07T02:38:30;5.28;;;4.82;;
15843;SDS011;50807;52.436;13.346;2023-05-07T02:39:01;5.78;;;5.28;;
15843;SDS011;50807;52.436;13.346;2023-05-07T02:39:33;5.53;;;5.03;;
15843;SDS011;50807;52.436;13.346;2023-05-07T02:40:05;5.25;;;4.75;;
15843;SDS011;50807;52.436;13.346;2023-05-07T02:40:37;6.00;;;5.45;;
15843;SDS011;50807;52.436;13.346;2023-05-07T02:41:09;5.53;;;5.10;;
15843;SDS011;50807;52.436;13.346;2023-05-07T02:41:41;5.03;;;4.63;;
15843;SDS011;50807;52.436;13.346;2023-05-07T02:42:11;5.20;;;4.80;;
15843;SDS011;50807;52.436;13.346;2023-05-07T02:42:42;4.93;;;4.53;;
15843;SDS011;50807;52.436;13.346;2023-05-07T02:43:13;5.60;;;5.10;;
15843;SDS011;50807;52.436;13.346;2023-05-07T02:43:45;5.47;;;5.03;;
15843;SDS011;50807;52.436;13.346;2023-05-07T02:44:15;5.63;;;5.10;;
15843;SDS011;50807;52.436;13.346;2023-05-07T02:44:46;5.47;;;5.07;;
15843;SDS011;50807;52.436;13.346;2023-05-07T02:45:17;5.37;;;4.90;;
15843;SDS011;50807;52.436;13.346;2023-05-07T02:45:49;5.72;;;5.25;;
15843;SDS011;50807;52.436;13.346;2023-05-07T02:46:30;6.00;;;5.50;;
15843;SDS011;50807;52.436;13.346;2023-05-07T02:47:03;5.43;;;4.93;;
15843;SDS011;50807;52.436;13.346;2023-05-07T02:47:34;5.50;;;5.00;;
15843;SDS011;50807;52.436;13.346;2023-05-07T02:48:05;5.10;;;4.70;;
15843;SDS011;50807;52.436;13.346;2023-05-07T02:48:37;5.97;;;5.47;;
15843;SDS011;50807;52.436;13.346;2023-05-07T02:49:08;5.77;;;5.20;;
15843;SDS011;50807;52.436;13.346;2023-05-07T02:49:39;5.23;;;4.83;;
15843;SDS011;50807;52.436;13.346;2023-05-07T02:50:10;6.60;;;4.78;;
15843;SDS011;50807;52.436;13.346;2023-05-07T02:50:42;5.60;;;5.10;;
15843;SDS011;50807;52.436;13.346;2023-05-07T02:51:13;5.40;;;4.90;;
15843;SDS011;50807;52.436;13.346;2023-05-07T02:51:45;5.38;;;4.97;;
15843;SDS011;50807;52.436;13.346;2023-05-07T02:52:16;6.00;;;5.50;;
15843;SDS011;50807;52.436;13.346;2023-05-07T02:52:47;5.57;;;5.07;;
15843;SDS011;50807;52.436;13.346;2023-05-07T02:53:18;6.63;;;5.20;;
15843;SDS011;50807;52.436;13.346;2023-05-07T02:53:51;5.10;;;4.70;;
15843;SDS011;50807;52.436;13.346;2023-05-07T02:54:21;5.93;;;5.43;;
15843;SDS011;50807;52.436;13.346;2023-05-07T02:54:53;5.68;;;5.18;;
15843;SDS011;50807;52.436;13.346;2023-05-07T02:55:24;6.10;;;5.50;;
15843;SDS011;50807;52.436;13.346;2023-05-07T02:55:55;5.27;;;4.87;;
15843;SDS011;50807;52.436;13.346;2023-05-07T02:56:28;5.50;;;5.10;;
15843;SDS011;50807;52.436;13.346;2023-05-07T02:57:00;5.32;;;4.93;;
15843;SDS011;50807;52.436;13.346;2023-05-07T02:57:32;5.68;;;5.18;;
15843;SDS011;50807;52.436;13.346;2023-05-07T02:58:02;5.33;;;4.83;;
15843;SDS011;50807;52.436;13.346;2023-05-07T02:58:34;5.65;;;5.15;;
15843;SDS011;50807;52.436;13.346;2023-05-07T02:59:05;5.57;;;5.17;;
15843;SDS011;50807;52.436;13.346;2023-05-07T02:59:36;5.37;;;4.97;;
15843;SDS011;50807;52.436;13.346;2023-05-07T03:00:11;5.40;;;5.00;;
15843;SDS011;50807;52.436;13.346;2023-05-07T03:00:44;4.88;;;4.40;;
15843;SDS011;50807;52.436;13.346;2023-05-07T03:01:15;5.53;;;5.07;;
15843;SDS011;50807;52.436;13.346;2023-05-07T03:01:47;5.57;;;5.07;;
15843;SDS011;50807;52.436;13.346;2023-05-07T03:02:18;4.57;;;4.28;;
15843;SDS011;50807;52.436;13.346;2023-05-07T03:02:49;5.00;;;4.60;;
15843;SDS011;50807;52.436;13.346;2023-05-07T03:03:20;5.68;;;5.18;;
15843;SDS011;50807;52.436;13.346;2023-05-07T03:03:51;5.43;;;4.93;;
15843;SDS011;50807;52.436;13.346;2023-05-07T03:04:22;5.80;;;4.80;;
15843;SDS011;50807;52.436;13.346;2023-05-07T03:04:54;5.80;;;5.30;;
15843;SDS011;50807;52.436;13.346;2023-05-07T03:05:24;5.00;;;4.50;;
15843;SDS011;50807;52.436;13.346;2023-05-07T03:05:55;5.43;;;5.03;;
15843;SDS011;50807;52.436;13.346;2023-05-07T03:06:27;7.78;;;5.10;;
15843;SDS011;50807;52.436;13.346;2023-05-07T03:06:58;6.00;;;5.23;;
15843;SDS011;50807;52.436;13.346;2023-05-07T03:07:29;5.10;;;4.47;;
15843;SDS011;50807;52.436;13.346;2023-05-07T03:08:00;5.00;;;4.60;;
15843;SDS011;50807;52.436;13.346;2023-05-07T03:08:31;5.13;;;4.70;;